Time;durP1;ratioP1;P1;durP2;ratioP2;P2;SDS_P1;SDS_P2;PMS_P1;PMS_P2;Temp;Humidity;BMP_temperature;BMP_pressure;BME280_temperature;BME280_humidity;BME280_pressure;Samples;Min_cycle;Max_cycle;Signal;HPM_P1;HPM_P2
2023/10/12 00:01:01;;;;;;;28.98;21.23;;;;;;;22.50;nan;98551.50;5067150;28;20136;-65
2023/10/12 00:03:30;;;;;;;26.48;20.33;;;;;;;22.57;nan;98541.22;5076615;28;20778;-65
2023/10/12 00:06:00;;;;;;;28.80;20.60;;;;;;;22.67;nan;98550.09;5063491;28;20063;-65
2023/10/12 00:08:33;;;;;;;28.08;20.73;;;;;;;22.77;nan;98536.59;5078469;28;20565;-65
2023/10/12 00:11:06;;;;;;;27.13;21.13;;;;;;;22.72;nan;98550.13;5072023;28;20139;-65
2023/10/12 00:13:41;;;;;;;31.63;21.33;;;;;;;22.49;nan;98552.56;5075624;28;20055;-65
2023/10/12 00:16:10;;;;;;;27.85;21.30;;;;;;;22.46;nan;98558.50;5074852;28;20054;-65
2023/10/12 00:18:45;;;;;;;34.67;21.65;;;;;;;22.45;nan;98554.19;5072197;28;20036;-66
2023/10/12 00:21:17;;;;;;;28.35;21.05;;;;;;;22.36;nan;98551.25;5073898;28;20198;-65
2023/10/12 00:23:48;;;;;;;31.60;22.30;;;;;;;22.23;nan;98560.69;5070810;28;20059;-65
2023/10/12 00:26:17;;;;;;;37.60;22.70;;;;;;;22.54;nan;98555.25;5074892;28;20648;-65
2023/10/12 00:28:51;;;;;;;37.95;21.77;;;;;;;22.56;nan;98559.31;5047115;28;20040;-65
2023/10/12 00:31:21;;;;;;;33.88;23.98;;;;;;;22.58;nan;98564.41;5020356;28;20111;-65
2023/10/12 00:33:51;;;;;;;38.45;25.55;;;;;;;22.46;nan;98564.72;5026897;28;20053;-65
2023/10/12 00:36:21;;;;;;;38.40;27.40;;;;;;;22.48;nan;98559.88;5037491;28;20044;-65
2023/10/12 00:38:56;;;;;;;33.30;24.67;;;;;;;22.73;nan;98559.03;5014079;28;20065;-66
2023/10/12 00:41:27;;;;;;;38.60;25.35;;;;;;;22.55;nan;98567.69;4997740;28;20048;-66
2023/10/12 00:44:08;;;;;;;38.45;23.73;;;;;;;22.25;nan;98563.94;5012357;28;20049;-64
2023/10/12 00:49:30;;;;;;;28.67;22.70;;;;;;;21.67;nan;98562.56;5027179;28;20049;-64
2023/10/12 00:52:13;;;;;;;34.78;21.83;;;;;;;21.55;nan;98569.28;5045872;28;20055;-64
2023/10/12 00:54:49;;;;;;;;;;;;;;;21.50;nan;98564.69;5022131;28;20488;-64
2023/10/12 00:57:18;;;;;;;44.03;25.50;;;;;;;21.50;nan;98573.56;5020061;28;19924;-64
2023/10/12 00:59:51;;;;;;;37.33;24.67;;;;;;;21.65;nan;98582.75;5037506;28;20709;-64
2023/10/12 01:02:29;;;;;;;39.60;26.75;;;;;;;22.10;nan;98588.22;5010624;28;20052;-65
2023/10/12 01:05:01;;;;;;;35.88;26.23;;;;;;;21.93;nan;98587.69;5039567;28;20056;-65
2023/10/12 01:07:34;;;;;;;46.07;26.73;;;;;;;21.86;nan;98596.00;5020416;28;20044;-65
2023/10/12 01:10:10;;;;;;;39.17;23.80;;;;;;;21.59;nan;98591.91;5023049;28;20906;-66
2023/10/12 01:12:39;;;;;;;33.38;24.33;;;;;;;21.95;nan;98604.41;5011797;28;20054;-65
2023/10/12 01:15:12;;;;;;;38.85;25.30;;;;;;;22.12;nan;98602.25;5023395;28;20054;-65
2023/10/12 01:17:41;;;;;;;39.10;25.83;;;;;;;21.95;nan;98605.19;5037974;28;20191;-65
2023/10/12 01:20:11;;;;;;;42.97;24.95;;;;;;;22.39;nan;98602.00;5024388;28;20049;-65
2023/10/12 01:22:41;;;;;;;36.95;22.98;;;;;;;22.50;nan;98608.16;5017015;28;20064;-65
2023/10/12 01:25:12;;;;;;;43.58;25.83;;;;;;;22.19;nan;98620.88;5006196;28;20046;-65
2023/10/12 01:27:44;;;;;;;34.78;22.40;;;;;;;22.50;nan;98621.66;5013090;28;20058;-65
2023/10/12 01:30:21;;;;;;;38.65;24.48;;;;;;;;;;5046449;28;20041;-65
2023/10/12 01:32:57;;;;;;;34.67;22.95;;;;;;;22.42;nan;98624.91;5023356;28;20763;-65
2023/10/12 01:35:33;;;;;;;38.03;23.40;;;;;;;22.23;nan;98630.84;5044453;28;20044;-65
2023/10/12 01:38:05;;;;;;;38.10;23.88;;;;;;;22.09;nan;98627.06;5043874;28;20114;-64
2023/10/12 01:43:19;;;;;;;32.58;21.92;;;;;;;22.22;nan;98637.31;5043909;28;20540;-65
2023/10/12 01:45:59;;;;;;;32.45;23.55;;;;;;;22.64;nan;98638.94;5045096;28;20045;-65
2023/10/12 01:48:33;;;;;;;37.17;24.42;;;;;;;22.70;nan;98643.28;5032370;28;20064;-65
2023/10/12 01:51:14;;;;;;;37.40;23.98;;;;;;;22.83;nan;98643.53;5014410;28;20049;-65
2023/10/12 01:53:44;;;;;;;34.90;22.67;;;;;;;22.84;nan;98652.41;5038059;28;20060;-65
2023/10/12 01:56:13;;;;;;;33.90;23.63;;;;;;;23.01;nan;98644.84;5020022;28;20141;-65
2023/10/12 01:58:44;;;;;;;30.00;22.85;;;;;;;23.11;nan;98650.19;5005099;28;20207;-65
2023/10/12 02:01:18;;;;;;;35.03;23.45;;;;;;;23.09;nan;98651.56;5025809;28;20057;-65
2023/10/12 02:03:54;;;;;;;33.70;23.98;;;;;;;22.98;nan;98653.47;5051111;28;20372;-65
2023/10/12 02:06:28;;;;;;;35.25;22.40;;;;;;;23.02;nan;98657.25;5046903;28;20566;-65
2023/10/12 02:09:10;;;;;;;35.45;22.55;;;;;;;23.15;nan;98659.38;5050091;28;20052;-65
2023/10/12 02:11:46;;;;;;;34.05;23.67;;;;;;;23.47;nan;98667.13;5027086;28;20182;-65
2023/10/12 02:14:31;;;;;;;35.78;24.77;;;;;;;23.52;nan;98671.72;5033523;28;20488;-65
2023/10/12 02:17:05;;;;;;;36.67;24.17;;;;;;;23.66;nan;98670.03;5043792;28;20045;-65
2023/10/12 02:19:49;;;;;;;40.35;25.73;;;;;;;23.79;nan;98674.81;5043334;28;20114;-65
2023/10/12 02:22:20;;;;;;;41.58;27.48;;;;;;;23.79;nan;98677.53;5044514;28;20128;-65
2023/10/12 02:27:58;;;;;;;39.13;25.52;;;;;;;24.04;nan;98684.69;5022402;28;20053;-64
2023/10/12 02:30:28;;;;;;;44.03;27.27;;;;;;;24.20;nan;98688.16;5017913;28;20679;-64
2023/10/12 02:33:07;;;;;;;44.05;28.58;;;;;;;24.40;nan;98688.00;5057806;28;20058;-64
2023/10/12 02:35:36;;;;;;;50.97;32.58;;;;;;;24.52;nan;98694.66;5063273;28;20051;-65
2023/10/12 02:38:14;;;;;;;51.38;35.67;;;;;;;24.60;nan;98693.25;5064221;28;20068;-64
2023/10/12 02:40:45;;;;;;;56.75;38.20;;;;;;;24.65;nan;98698.59;5064250;28;20135;-64
2023/10/12 02:43:15;;;;;;;59.20;43.13;;;;;;;24.74;nan;98702.31;5027118;28;20055;-64
2023/10/12 02:45:49;;;;;;;59.15;39.65;;;;;;;24.80;nan;98709.31;5039402;28;20052;-64
2023/10/12 02:48:23;;;;;;;57.10;39.15;;;;;;;24.88;nan;98713.34;5034316;28;20995;-65
2023/10/12 02:50:58;;;;;;;52.35;39.85;;;;;;;25.08;nan;98709.63;5064192;28;20109;-64
2023/10/12 02:53:31;;;;;;;57.63;41.03;;;;;;;25.09;nan;98713.97;5063908;28;20056;-65
2023/10/12 02:56:07;;;;;;;57.17;40.47;;;;;;;25.16;nan;98719.84;5064352;28;20114;-64
2023/10/12 02:58:37;;;;;;;50.22;37.53;;;;;;;24.88;nan;98733.13;5037361;28;20045;-64
2023/10/12 03:01:18;;;;;;;51.78;35.55;;;;;;;25.17;nan;98730.41;5061993;28;20495;-64
2023/10/12 03:03:48;;;;;;;67.53;37.97;;;;;;;25.02;nan;98733.25;5040628;28;20048;-65
2023/10/12 03:06:24;;;;;;;54.08;35.25;;;;;;;25.27;nan;98737.66;5034238;28;20433;-65
2023/10/12 03:09:13;;;;;;;50.38;35.53;;;;;;;25.52;nan;98744.69;5064148;28;20048;-64
2023/10/12 03:11:43;;;;;;;53.97;33.40;;;;;;;25.55;nan;98746.84;5062795;28;20101;-64
2023/10/12 03:14:26;;;;;;;42.15;31.13;;;;;;;25.44;nan;98749.66;5032253;28;20670;-64
2023/10/12 03:17:03;;;;;;;37.00;27.38;;;;;;;25.51;nan;98760.16;5043917;28;20057;-65
2023/10/12 03:19:35;;;;;;;44.65;27.00;;;;;;;25.73;nan;98756.94;5060650;28;20124;-65
2023/10/12 03:22:25;;;;;;;35.00;26.50;;;;;;;25.86;nan;98759.75;5060963;28;20051;-64
2023/10/12 03:25:03;;;;;;;39.00;25.65;;;;;;;25.89;nan;98766.53;5057319;28;20530;-65
2023/10/12 03:27:33;;;;;;;34.05;26.02;;;;;;;25.95;nan;98759.94;5032413;28;20479;-65
2023/10/12 03:30:09;;;;;;;33.58;25.02;;;;;;;26.35;nan;98764.03;5044747;28;20361;-64
2023/10/12 03:32:41;;;;;;;42.80;27.10;;;;;;;26.34;nan;98765.94;5052711;28;20049;-65
2023/10/12 03:35:22;;;;;;;31.00;23.35;;;;;;;26.56;nan;98773.47;5062589;28;20040;-65
2023/10/12 03:38:00;;;;;;;36.38;23.23;;;;;;;26.88;nan;98763.78;5060147;28;20468;-65
2023/10/12 03:43:26;;;;;;;30.30;21.65;;;;;;;27.55;nan;98774.03;5055050;28;20040;-65
2023/10/12 03:46:07;;;;;;;35.17;21.80;;;;;;;27.54;nan;98779.75;5067393;28;20052;-65
2023/10/12 03:53:57;;;;;;;38.28;24.38;;;;;;;27.92;nan;98783.13;5045000;28;20068;-65
2023/10/12 03:56:38;;;;;;;43.13;28.15;;;;;;;27.98;nan;98782.69;5049318;28;20075;-65
2023/10/12 03:59:07;;;;;;;43.65;26.60;;;;;;;28.29;nan;98782.06;5062575;28;20131;-65
2023/10/12 04:01:41;;;;;;;40.05;28.15;;;;;;;28.34;nan;98787.41;5062645;28;20109;-65
2023/10/12 04:04:27;;;;;;;34.70;26.77;;;;;;;28.83;nan;98790.09;5046494;28;20052;-65
2023/10/12 04:09:39;;;;;;;42.50;28.08;;;;;;;29.42;nan;98797.09;5067122;28;20179;-65
2023/10/12 04:14:59;;;;;;;37.85;25.90;;;;;;;29.55;nan;98800.03;5050803;28;20478;-65
2023/10/12 04:28:32;;;;;;;35.38;20.65;;;;;;;31.42;nan;98821.72;5065628;28;20456;-67
2023/10/12 04:33:30;;;;;;;36.70;19.95;;;;;;;31.59;nan;98818.94;5045458;28;20744;-66
2023/10/12 04:44:03;;;;;;;28.73;17.00;;;;;;;32.25;nan;98825.59;5060867;28;20058;-66
2023/10/12 04:46:47;;;;;;;31.75;16.80;;;;;;;32.25;nan;98822.06;5064212;28;20058;-66
2023/10/12 04:52:13;;;;;;;26.05;16.38;;;;;;;32.17;nan;98831.13;5067379;28;20040;-66
2023/10/12 04:54:49;;;;;;;23.67;15.95;;;;;;;32.47;nan;98824.50;5060585;28;20371;-66
2023/10/12 04:57:26;;;;;;;28.33;15.60;;;;;;;32.75;nan;98833.81;5061979;28;20148;-67
2023/10/12 05:02:58;;;;;;;32.28;16.90;;;;;;;32.27;nan;98828.78;5069491;28;20044;-67
2023/10/12 05:07:57;;;;;;;26.23;17.02;;;;;;;32.82;nan;98834.09;5070090;28;20106;-67
2023/10/12 05:10:31;;;;;;;31.95;16.83;;;;;;;33.03;nan;98830.50;5070671;28;20048;-66
2023/10/12 05:13:06;;;;;;;30.60;17.52;;;;;;;32.04;nan;98830.22;5065972;28;20036;-67
2023/10/12 05:15:43;;;;;;;36.08;16.60;;;;;;;32.15;nan;98823.22;5052347;28;20136;-66
2023/10/12 05:18:17;;;;;;;29.38;16.52;;;;;;;33.04;nan;98823.88;5058012;28;20146;-66
2023/10/12 05:20:47;;;;;;;29.10;17.90;;;;;;;32.52;nan;98827.84;5061384;28;20126;-66
2023/10/12 05:23:17;;;;;;;33.42;17.42;;;;;;;33.02;nan;98815.97;5064808;28;20462;-66
2023/10/12 05:31:22;;;;;;;28.55;17.27;;;;;;;32.88;nan;98824.50;5043247;28;20167;-66
2023/10/12 05:34:01;;;;;;;37.85;18.58;;;;;;;32.88;nan;98823.72;5064356;28;20048;-66
2023/10/12 05:36:31;;;;;;;29.85;17.80;;;;;;;32.88;nan;98818.22;5059795;28;20122;-68
2023/10/12 05:39:12;;;;;;;33.08;18.63;;;;;;;32.65;nan;98820.50;5057601;28;20052;-66
2023/10/12 05:41:41;;;;;;;31.95;17.98;;;;;;;32.85;nan;98819.69;5068822;28;20502;-66
2023/10/12 05:44:14;;;;;;;36.00;19.63;;;;;;;33.18;nan;98814.25;5063375;28;20076;-65
2023/10/12 05:46:45;;;;;;;;;;;;;;;32.87;nan;98811.94;5064005;28;20056;-65
2023/10/12 05:49:17;;;;;;;31.83;17.80;;;;;;;32.84;nan;98811.81;5045193;28;19924;-66
2023/10/12 05:51:47;;;;;;;32.55;17.77;;;;;;;32.91;nan;98801.88;5056486;28;20132;-66
2023/10/12 05:54:19;;;;;;;38.33;18.95;;;;;;;32.88;nan;98797.06;5061814;28;20056;-65
2023/10/12 05:56:50;;;;;;;37.95;19.13;;;;;;;32.89;nan;98806.91;5064459;28;20048;-65
2023/10/12 05:59:19;;;;;;;34.55;18.67;;;;;;;32.95;nan;98799.28;5061445;28;20062;-65
2023/10/12 06:01:49;;;;;;;32.75;19.00;;;;;;;32.72;nan;98800.75;5063126;28;20071;-66
2023/10/12 06:04:21;;;;;;;34.80;19.45;;;;;;;32.74;nan;98796.56;5064195;28;20490;-65
2023/10/12 06:06:53;;;;;;;30.13;16.65;;;;;;;32.59;nan;98794.38;5067751;28;20048;-65
2023/10/12 06:09:35;;;;;;;30.38;16.10;;;;;;;32.83;nan;98788.25;5055387;28;20040;-65
2023/10/12 06:12:12;;;;;;;25.98;17.48;;;;;;;32.37;nan;98792.78;5042222;28;20056;-66
2023/10/12 06:14:52;;;;;;;33.92;18.80;;;;;;;32.11;nan;98788.59;5038106;28;20060;-67
2023/10/12 06:17:31;;;;;;;34.95;18.88;;;;;;;32.12;nan;98785.53;5045132;28;20076;-65
2023/10/12 06:20:11;;;;;;;41.08;18.73;;;;;;;32.18;nan;98775.16;5053218;28;20133;-66
2023/10/12 06:22:47;;;;;;;40.00;19.60;;;;;;;32.36;nan;98782.13;5041116;28;20601;-66
2023/10/12 06:25:18;;;;;;;37.17;20.13;;;;;;;32.16;nan;98780.19;5059854;28;20075;-66
2023/10/12 06:27:51;;;;;;;34.08;18.13;;;;;;;32.06;nan;98771.19;5063340;28;20041;-66
2023/10/12 06:30:23;;;;;;;26.08;15.48;;;;;;;32.15;nan;98775.81;5052418;28;20040;-67
2023/10/12 06:32:58;;;;;;;28.63;15.85;;;;;;;31.94;nan;98771.09;5057219;28;20056;-66
2023/10/12 06:35:28;;;;;;;31.35;14.38;;;;;;;32.31;nan;98771.38;5059751;28;20040;-66
2023/10/12 06:45:49;;;;;;;23.88;9.63;;;;;;;32.50;nan;98758.81;5055837;28;19940;-64
2023/10/12 06:51:02;;;;;;;17.30;9.40;;;;;;;32.50;nan;98758.81;5061823;28;20044;-64
2023/10/12 06:53:36;;;;;;;20.25;8.75;;;;;;;32.32;nan;98748.28;5057858;28;20431;-64
2023/10/12 06:56:24;;;;;;;19.30;9.25;;;;;;;32.50;nan;98747.81;5052610;28;20160;-64
2023/10/12 07:02:10;;;;;;;19.55;7.78;;;;;;;32.70;nan;98749.00;4995302;28;20065;-64
2023/10/12 07:04:53;;;;;;;19.92;8.63;;;;;;;32.54;nan;98745.22;5055210;28;20064;-64
2023/10/12 07:07:29;;;;;;;27.02;8.00;;;;;;;32.42;nan;98740.47;5065944;28;20429;-64
2023/10/12 07:12:44;;;;;;;18.92;7.47;;;;;;;32.60;nan;98740.34;5061245;28;20052;-64
2023/10/12 07:15:32;;;;;;;19.58;7.57;;;;;;;32.58;nan;98726.13;5059790;28;20044;-64
2023/10/12 07:18:07;;;;;;;20.80;8.55;;;;;;;32.49;nan;98732.50;5056318;28;20051;-65
2023/10/12 07:23:14;;;;;;;22.75;7.47;;;;;;;32.43;nan;98731.13;5065134;28;20060;-65
2023/10/12 07:25:57;;;;;;;18.13;6.65;;;;;;;32.59;nan;98723.06;5066821;28;20075;-64
2023/10/12 07:28:39;;;;;;;;;;;;;;;32.57;nan;98721.81;5060488;28;20084;-65
2023/10/12 07:39:38;;;;;;;14.73;7.28;;;;;;;31.71;nan;98703.22;5066216;28;20059;-64
2023/10/12 07:42:12;;;;;;;14.95;7.25;;;;;;;32.03;nan;98702.53;5056254;28;20460;-64
2023/10/12 07:44:54;;;;;;;22.38;8.65;;;;;;;31.89;nan;98702.78;5053826;28;20741;-64
2023/10/12 07:47:40;;;;;;;12.38;7.50;;;;;;;31.84;nan;98697.50;5052989;28;20044;-64
2023/10/12 07:50:12;;;;;;;15.57;7.18;;;;;;;31.94;nan;98699.06;5058749;28;20616;-65
2023/10/12 07:55:17;;;;;;;12.53;7.13;;;;;;;31.97;nan;98690.97;5066927;28;20059;-64
2023/10/12 07:57:47;;;;;;;15.32;6.53;;;;;;;31.90;nan;98685.22;5063994;28;20282;-64
2023/10/12 08:00:34;;;;;;;13.48;6.53;;;;;;;31.91;nan;98684.06;5055431;28;20051;-65
2023/10/12 08:03:18;;;;;;;19.30;6.97;;;;;;;31.88;nan;98684.75;5058709;28;20052;-65
2023/10/12 08:05:57;;;;;;;17.90;8.98;;;;;;;31.87;nan;98682.31;5047646;28;20072;-63
2023/10/12 08:08:37;;;;;;;16.58;7.38;;;;;;;31.93;nan;98668.09;5066356;28;20151;-64
2023/10/12 08:11:11;;;;;;;14.45;7.60;;;;;;;31.92;nan;98676.66;5062560;28;20055;-65
2023/10/12 08:13:47;;;;;;;24.08;8.73;;;;;;;31.79;nan;98672.22;5053628;28;20129;-64
2023/10/12 08:16:25;;;;;;;21.05;8.75;;;;;;;31.72;nan;98672.78;5053503;28;20061;-65
2023/10/12 08:21:34;;;;;;;13.35;8.05;;;;;;;31.57;nan;98668.66;5065864;28;20052;-65
2023/10/12 08:24:15;;;;;;;19.63;8.10;;;;;;;31.55;nan;98662.72;5065493;28;20048;-65
2023/10/12 08:35:10;;;;;;;14.73;7.32;;;;;;;31.47;nan;98651.75;5030659;28;20049;-64
2023/10/12 08:38:09;;;;;;;17.15;7.60;;;;;;;31.50;nan;98649.19;5044832;28;20071;-65
2023/10/12 08:40:30;;;;;;;15.25;8.00;;;;;;;31.49;nan;98650.31;5026018;28;20137;-65
2023/10/12 08:43:06;;;;;;;19.73;7.75;;;;;;;31.47;nan;98644.34;5041952;28;20049;-65
2023/10/12 08:45:37;;;;;;;14.27;8.25;;;;;;;31.42;nan;98641.03;5045615;28;20114;-65
2023/10/12 08:48:09;;;;;;;18.45;8.52;;;;;;;31.46;nan;98637.31;5027405;28;20162;-63
2023/10/12 08:50:58;;;;;;;20.52;9.07;;;;;;;31.47;nan;98640.81;5058078;28;20056;-61
2023/10/12 08:53:31;;;;;;;17.27;7.93;;;;;;;31.47;nan;98636.13;5041665;28;20105;-61
2023/10/12 08:56:06;;;;;;;15.57;7.70;;;;;;;31.42;nan;98627.34;5045003;28;20045;-61
2023/10/12 08:58:57;;;;;;;15.60;8.35;;;;;;;31.42;nan;98630.06;5045350;28;20041;-62
2023/10/12 09:01:31;;;;;;;16.63;8.07;;;;;;;31.37;nan;98625.59;5042379;28;20045;-62
2023/10/12 09:04:11;;;;;;;18.35;8.27;;;;;;;31.33;nan;98624.66;5031517;28;20049;-61
2023/10/12 09:06:53;;;;;;;16.60;7.50;;;;;;;31.36;nan;98623.19;5044936;28;20048;-61
2023/10/12 09:12:39;;;;;;;22.95;8.55;;;;;;;31.32;nan;98619.50;4984058;28;20046;-62
2023/10/12 09:15:28;;;;;;;24.13;9.10;;;;;;;31.32;nan;98635.91;4979463;28;20089;-62
2023/10/12 09:18:09;;;;;;;12.07;7.93;;;;;;;31.20;nan;98629.19;5024607;28;20045;-61
2023/10/12 09:20:41;;;;;;;14.95;7.93;;;;;;;31.23;nan;98621.47;5043930;28;20055;-61
2023/10/12 09:23:15;;;;;;;25.50;7.97;;;;;;;31.24;nan;98623.91;5042601;28;20056;-62
2023/10/12 09:26:13;;;;;;;18.25;8.13;;;;;;;31.18;nan;98614.25;5039515;28;20053;-61
2023/10/12 09:37:06;;;;;;;19.75;8.00;;;;;;;31.13;nan;98611.69;5064725;28;20045;-61
2023/10/12 09:39:35;;;;;;;12.88;7.13;;;;;;;31.09;nan;98614.28;5057422;28;20044;-61
2023/10/12 09:42:14;;;;;;;15.93;7.65;;;;;;;31.07;nan;98611.06;5061653;28;20052;-62
2023/10/12 09:44:45;;;;;;;14.40;7.03;;;;;;;31.08;nan;98615.41;5065170;28;20060;-61
2023/10/12 09:47:16;;;;;;;17.38;7.47;;;;;;;31.05;nan;98605.16;5064775;28;20052;-61
2023/10/12 09:50:13;;;;;;;17.55;7.85;;;;;;;31.05;nan;98598.88;5045148;28;20040;-61
2023/10/12 09:52:57;;;;;;;25.75;6.95;;;;;;;31.07;nan;98599.34;5062956;28;20068;-60
2023/10/12 09:55:36;;;;;;;23.80;8.10;;;;;;;31.03;nan;98596.44;5064040;28;20054;-62
2023/10/12 09:58:22;;;;;;;17.10;7.82;;;;;;;30.97;nan;98591.47;5063823;28;20044;-61
2023/10/12 10:01:01;;;;;;;20.35;7.88;;;;;;;30.92;nan;98591.66;5059449;28;20086;-61
2023/10/12 10:03:52;;;;;;;14.80;7.25;;;;;;;30.86;nan;98591.03;5062204;28;20049;-61
2023/10/12 10:06:28;;;;;;;18.08;7.57;;;;;;;30.82;nan;98586.53;5053034;28;20399;-60
2023/10/12 10:09:23;;;;;;;12.70;7.60;;;;;;;30.81;nan;98588.47;5063652;28;20052;-60
2023/10/12 10:11:59;;;;;;;22.58;7.45;;;;;;;30.82;nan;98595.53;5064212;28;20161;-60
2023/10/12 10:14:37;;;;;;;13.77;7.45;;;;;;;30.79;nan;98593.47;5063876;28;20508;-60
2023/10/12 10:17:14;;;;;;;23.23;7.78;;;;;;;30.70;nan;98589.97;5060546;28;20467;-60
2023/10/12 10:19:52;;;;;;;18.10;7.28;;;;;;;30.72;nan;98598.63;5060150;28;20040;-61
2023/10/12 10:22:22;;;;;;;19.35;7.63;;;;;;;30.68;nan;98597.69;5055352;28;20144;-60
2023/10/12 10:25:04;;;;;;;18.73;8.13;;;;;;;30.71;nan;98594.31;5061402;28;20040;-60
2023/10/12 10:27:34;;;;;;;13.27;6.72;;;;;;;30.67;nan;98593.38;5063425;28;20528;-61
2023/10/12 10:30:25;;;;;;;21.77;7.90;;;;;;;30.72;nan;98590.44;5062415;28;20353;-60
2023/10/12 10:33:12;;;;;;;20.05;7.78;;;;;;;30.70;nan;98588.03;5061959;28;20044;-61
2023/10/12 10:36:17;;;;;;;15.75;7.65;;;;;;;30.66;nan;98592.56;5061053;28;20083;-61
2023/10/12 10:38:53;;;;;;;14.55;7.32;;;;;;;30.57;nan;98589.03;5059494;28;20040;-61
2023/10/12 10:44:21;;;;;;;19.20;8.23;;;;;;;30.41;nan;98587.09;5062471;28;20055;-61
2023/10/12 10:46:57;;;;;;;15.23;7.63;;;;;;;30.37;nan;98583.41;5062962;28;20048;-61
2023/10/12 10:49:33;;;;;;;13.10;7.85;;;;;;;30.29;nan;98577.66;5063383;28;20052;-60
2023/10/12 10:54:37;;;;;;;19.48;7.82;;;;;;;30.16;nan;98589.56;5061524;28;20060;-61
2023/10/12 10:57:15;;;;;;;18.42;7.90;;;;;;;30.12;nan;98582.34;5056375;28;20053;-60
2023/10/12 10:59:45;;;;;;;14.75;8.32;;;;;;;30.09;nan;98594.72;5051264;28;20114;-60
2023/10/12 11:02:22;;;;;;;14.40;7.97;;;;;;;30.02;nan;98582.66;5057969;28;20143;-61
2023/10/12 11:05:00;;;;;;;24.23;9.00;;;;;;;29.96;nan;98587.50;5051670;28;20095;-60
2023/10/12 11:07:29;;;;;;;16.90;8.63;;;;;;;29.87;nan;98582.03;5059866;28;20683;-61
2023/10/12 11:12:36;;;;;;;25.38;8.43;;;;;;;29.82;nan;98589.56;5063116;28;20044;-60
2023/10/12 11:15:11;;;;;;;19.08;8.65;;;;;;;29.78;nan;98580.41;5033522;28;20114;-60
2023/10/12 11:17:56;;;;;;;16.70;7.85;;;;;;;29.66;nan;98581.03;5055217;28;20139;-60
2023/10/12 11:21:01;;;;;;;18.33;9.05;;;;;;;29.65;nan;98575.91;5052384;28;20153;-60
2023/10/12 11:23:22;;;;;;;17.75;7.63;;;;;;;29.53;nan;98578.44;5054237;28;20143;-60
2023/10/12 11:26:04;;;;;;;14.77;7.88;;;;;;;29.50;nan;98581.81;5050900;28;20052;-61
2023/10/12 11:28:33;;;;;;;18.75;9.05;;;;;;;29.42;nan;98578.78;5043493;28;20364;-61
2023/10/12 11:31:30;;;;;;;23.60;8.57;;;;;;;29.38;nan;98580.53;5043666;28;20543;-61
2023/10/12 11:34:11;;;;;;;26.05;8.88;;;;;;;29.28;nan;98575.34;5039892;28;20068;-61
2023/10/12 11:36:41;;;;;;;23.13;8.38;;;;;;;29.20;nan;98580.78;5063453;28;20048;-60
2023/10/12 11:39:21;;;;;;;19.92;8.52;;;;;;;29.19;nan;98576.44;5062998;28;20139;-61
2023/10/12 11:42:07;;;;;;;18.25;8.02;;;;;;;29.14;nan;98584.75;5059456;28;20355;-60
2023/10/12 11:44:42;;;;;;;20.15;8.65;;;;;;;29.09;nan;98587.63;5057313;28;20666;-60
2023/10/12 11:47:17;;;;;;;23.60;9.23;;;;;;;29.00;nan;98587.59;5063889;28;20472;-60
2023/10/12 11:49:58;;;;;;;26.77;9.00;;;;;;;28.94;nan;98581.47;5058790;28;20049;-61
2023/10/12 11:52:33;;;;;;;23.05;10.00;;;;;;;28.91;nan;98592.22;5073440;28;20056;-61
2023/10/12 11:55:07;;;;;;;16.80;8.80;;;;;;;28.85;nan;98593.50;5047228;28;20045;-60
2023/10/12 11:57:40;;;;;;;20.05;9.88;;;;;;;28.84;nan;98589.16;5049327;28;20053;-61
2023/10/12 12:00:21;;;;;;;16.95;9.40;;;;;;;28.83;nan;98592.97;5053147;28;20383;-60
2023/10/12 12:02:57;;;;;;;22.17;10.40;;;;;;;28.82;nan;98596.81;5063847;28;20040;-60
2023/10/12 12:05:29;;;;;;;19.75;10.05;;;;;;;28.65;nan;98600.25;5062831;28;20049;-60
2023/10/12 12:08:25;;;;;;;19.33;9.38;;;;;;;28.74;nan;98594.88;5065034;28;20097;-61
2023/10/12 12:10:56;;;;;;;24.83;10.75;;;;;;;28.65;nan;98605.69;5054530;28;20040;-60
2023/10/12 12:13:26;;;;;;;29.73;11.55;;;;;;;28.58;nan;98592.53;5059705;28;20055;-60
2023/10/12 12:15:58;;;;;;;39.58;12.65;;;;;;;28.45;nan;98596.16;5053548;28;20638;-61
2023/10/12 12:18:27;;;;;;;21.20;11.57;;;;;;;28.49;nan;98605.31;5054840;28;20061;-60
2023/10/12 12:20:57;;;;;;;20.13;10.77;;;;;;;28.40;nan;98599.00;5053353;28;20053;-60
2023/10/12 12:23:33;;;;;;;23.20;10.93;;;;;;;28.35;nan;98598.31;5055315;28;20083;-60
2023/10/12 12:26:22;;;;;;;27.02;11.93;;;;;;;28.28;nan;98600.69;5052549;28;20056;-60
2023/10/12 12:29:03;;;;;;;21.60;11.43;;;;;;;28.18;nan;98601.72;5055781;28;20080;-60
2023/10/12 12:31:32;;;;;;;23.95;11.55;;;;;;;28.18;nan;98599.00;5061003;28;20067;-60
2023/10/12 12:34:06;;;;;;;24.63;10.75;;;;;;;28.20;nan;98596.75;5045623;28;20633;-61
2023/10/12 12:36:37;;;;;;;29.27;12.27;;;;;;;28.12;nan;98595.59;5064432;28;20040;-60
2023/10/12 12:39:12;;;;;;;28.25;12.80;;;;;;;28.03;nan;98593.88;5062393;28;20045;-60
2023/10/12 12:41:42;;;;;;;27.50;12.23;;;;;;;28.03;nan;98602.06;5065733;28;20053;-61
2023/10/12 12:44:12;;;;;;;19.85;14.13;;;;;;;28.05;nan;98603.38;5063960;28;20055;-60
2023/10/12 12:46:41;;;;;;;30.70;14.18;;;;;;;27.98;nan;98604.91;5062922;28;20171;-60
2023/10/12 12:49:12;;;;;;;25.63;13.20;;;;;;;28.01;nan;98602.38;5065015;28;20463;-60
2023/10/12 12:51:43;;;;;;;26.05;13.23;;;;;;;27.96;nan;98609.84;5045978;28;20151;-60
2023/10/12 12:54:12;;;;;;;22.58;12.95;;;;;;;27.91;nan;98604.53;5061373;28;20153;-61
2023/10/12 12:56:42;;;;;;;25.27;13.05;;;;;;;27.81;nan;98604.75;5065986;28;20384;-61
2023/10/12 12:59:11;;;;;;;29.45;13.02;;;;;;;27.87;nan;98617.16;5064202;28;20044;-60
2023/10/12 13:01:42;;;;;;;26.33;13.45;;;;;;;27.70;nan;98609.63;5052175;28;20136;-61
2023/10/12 13:04:11;;;;;;;24.05;13.15;;;;;;;27.72;nan;98610.13;5061881;28;20925;-61
2023/10/12 13:06:41;;;;;;;28.80;14.30;;;;;;;27.75;nan;98608.72;5062818;28;20460;-61
2023/10/12 13:09:28;;;;;;;23.20;13.07;;;;;;;27.69;nan;98614.28;5061510;28;20045;-61
2023/10/12 13:11:58;;;;;;;29.20;14.85;;;;;;;27.75;nan;98612.22;5074177;28;20510;-61
2023/10/12 13:14:29;;;;;;;34.33;15.18;;;;;;;27.64;nan;98619.81;5068077;28;20121;-60
2023/10/12 13:16:59;;;;;;;31.10;13.73;;;;;;;27.60;nan;98618.81;5065878;28;20052;-61
2023/10/12 13:19:31;;;;;;;27.00;14.10;;;;;;;27.62;nan;98619.31;5062177;28;20053;-60
2023/10/12 13:22:01;;;;;;;42.00;15.02;;;;;;;27.49;nan;98620.13;5053373;28;20079;-60
2023/10/12 13:24:35;;;;;;;30.60;13.60;;;;;;;27.58;nan;98626.47;5050383;28;20464;-61
2023/10/12 13:27:08;;;;;;;31.02;15.07;;;;;;;27.48;nan;98625.91;5058386;28;20052;-61
2023/10/12 13:29:38;;;;;;;26.00;13.85;;;;;;;27.36;nan;98628.28;5055578;28;20060;-61
2023/10/12 13:32:09;;;;;;;24.85;13.13;;;;;;;27.39;nan;98628.50;5043335;28;20486;-60
2023/10/12 13:34:38;;;;;;;25.15;14.18;;;;;;;27.40;nan;98632.81;5042466;28;20063;-61
2023/10/12 13:37:13;;;;;;;21.74;13.40;;;;;;;27.35;nan;98638.34;4879794;28;10001308;-61
2023/10/12 13:39:42;;;;;;;33.13;15.50;;;;;;;27.40;nan;98635.53;5037470;28;20240;-60
2023/10/12 13:42:12;;;;;;;35.25;14.85;;;;;;;27.34;nan;98644.94;5046355;28;20056;-60
2023/10/12 13:44:42;;;;;;;24.60;14.35;;;;;;;27.24;nan;98647.84;5040596;28;20522;-60
2023/10/12 13:47:13;;;;;;;32.97;14.50;;;;;;;27.19;nan;98645.22;5029412;28;20136;-61
2023/10/12 13:49:43;;;;;;;26.73;15.25;;;;;;;27.17;nan;98642.78;5045238;28;20056;-60
2023/10/12 13:52:14;;;;;;;23.13;14.15;;;;;;;27.28;nan;98651.56;5042068;28;20041;-60
2023/10/12 13:54:45;;;;;;;26.90;14.20;;;;;;;27.22;nan;98650.84;5028518;28;20050;-60
2023/10/12 13:57:15;;;;;;;24.45;15.00;;;;;;;27.26;nan;98657.31;5041370;28;20048;-60
2023/10/12 13:59:45;;;;;;;25.73;14.52;;;;;;;27.21;nan;98653.91;5043473;28;20048;-60
2023/10/12 14:02:16;;;;;;;19.67;15.40;;;;;;;27.14;nan;98656.19;5035335;28;20150;-60
2023/10/12 14:04:49;;;;;;;26.02;14.93;;;;;;;27.10;nan;98663.34;5040509;28;20053;-60
2023/10/12 14:07:19;;;;;;;27.42;15.45;;;;;;;27.17;nan;98667.25;5029600;28;20061;-60
2023/10/12 14:09:50;;;;;;;44.65;16.17;;;;;;;27.16;nan;98662.97;5031722;28;20466;-60
2023/10/12 14:12:20;;;;;;;35.53;16.27;;;;;;;27.06;nan;98671.31;5027588;28;20423;-60